Terminal Aerodrome Forecast
Issued by NWS

Home | Current Version | Previous Version | Text Only | Print | Product List | Glossary On
Versions: 1 2 3 4 5 6 7 8 9 10 11 12 13 14 15 16 17 18 19 20
000
FTUS44 KBMX 030520
TAFTOI
TAF
KTOI 030520Z 0306/0406 00000KT P6SM SCT060
     FM030900 00000KT 4SM BR BKN005
     FM031400 00000KT P6SM BKN015
     FM031600 35004KT P6SM SCT040=

USA.gov is the U.S. government's official web portal to all federal, state and local government web resources and services.